createdAt,value
2022-11-28T00:00:22.148Z,101654.41
2022-11-28T00:02:45.761Z,101662.81
2022-11-28T00:05:12.289Z,101645.19
2022-11-28T00:07:35.985Z,101650.16
2022-11-28T00:09:59.704Z,101642.53
2022-11-28T00:12:24.675Z,101644.19
2022-11-28T00:14:48.260Z,101650.38
2022-11-28T00:17:11.763Z,101640.47
2022-11-28T00:19:35.336Z,101635.97
2022-11-28T00:21:58.850Z,101640.78
2022-11-28T00:24:22.474Z,101644.47
2022-11-28T00:26:46.083Z,101637.03
2022-11-28T00:29:11.574Z,101630.34
2022-11-28T00:31:42.361Z,101625.44
2022-11-28T00:34:06.434Z,101617.31
2022-11-28T00:36:31.143Z,101618.78
2022-11-28T00:38:54.721Z,101622.88
2022-11-28T00:41:20.920Z,101624.56
2022-11-28T00:43:46.496Z,101624.19
2022-11-28T00:46:12.707Z,101624.44
2022-11-28T00:48:37.266Z,101616.41
2022-11-28T00:51:08.611Z,101610.31
2022-11-28T00:53:32.360Z,101614.75
2022-11-28T00:55:55.828Z,101621.06
2022-11-28T00:58:19.423Z,101612.91
2022-11-28T01:00:42.991Z,101614.41
2022-11-28T01:03:08.011Z,101615.34
2022-11-28T01:05:31.559Z,101609.38
2022-11-28T01:07:55.320Z,101604.81
2022-11-28T01:10:19.148Z,101603.22
2022-11-28T01:12:42.786Z,101594.28
2022-11-28T01:15:09.414Z,101590.41
2022-11-28T01:17:33.019Z,101588.50
2022-11-28T01:19:57.917Z,101585.41
2022-11-28T01:22:21.492Z,101578.88
2022-11-28T01:24:45.124Z,101587.50
2022-11-28T01:27:08.732Z,101583.38
2022-11-28T01:29:32.264Z,101571.84
2022-11-28T01:31:57.631Z,101570.22
2022-11-28T01:34:21.210Z,101574.44
2022-11-28T01:36:46.186Z,101570.31
2022-11-28T01:39:10.951Z,101570.03
2022-11-28T01:41:34.561Z,101565.88
2022-11-28T01:44:09.713Z,101562.69
2022-11-28T01:46:34.695Z,101567.59
2022-11-28T01:49:02.811Z,101556.53
2022-11-28T01:51:26.516Z,101560.47
2022-11-28T01:53:51.609Z,101560.91
2022-11-28T01:56:20.473Z,101554.06
2022-11-28T01:58:50.683Z,101548.28
2022-11-28T02:01:15.119Z,101544.53
2022-11-28T02:03:45.356Z,101549.19
2022-11-28T02:06:09.549Z,101545.63
2022-11-28T02:08:34.705Z,101538.25
2022-11-28T02:11:29.711Z,101543.22
2022-11-28T02:14:07.041Z,101537.53
2022-11-28T02:16:50.022Z,101536.22
2022-11-28T02:20:07.290Z,101525.06
2022-11-28T02:22:38.093Z,101530.34
2022-11-28T02:25:35.727Z,101526.88
2022-11-28T02:28:44.970Z,101528.88
2022-11-28T02:31:27.111Z,101523.75
2022-11-28T02:33:57.119Z,101514.66
2022-11-28T02:36:30.111Z,101518.88
2022-11-28T02:39:02.832Z,101517.84
2022-11-28T02:41:34.342Z,101515.25
2022-11-28T02:44:09.018Z,101510.50
2022-11-28T02:46:42.557Z,101517.84
2022-11-28T02:49:11.629Z,101514.31
2022-11-28T02:51:39.608Z,101503.31
2022-11-28T02:54:05.187Z,101504.13
2022-11-28T02:56:29.151Z,101496.56
2022-11-28T02:58:53.024Z,101497.50
2022-11-28T03:01:23.185Z,101500.41
2022-11-28T03:04:18.310Z,101486.16
2022-11-28T03:06:52.211Z,101489.84
2022-11-28T03:09:43.301Z,101486.09
2022-11-28T03:12:22.433Z,101481.72
2022-11-28T03:14:53.633Z,101473.25
2022-11-28T03:17:26.450Z,101473.00
2022-11-28T03:20:03.172Z,101471.59
2022-11-28T03:22:37.158Z,101477.81
2022-11-28T03:25:11.450Z,101467.00
2022-11-28T03:27:39.309Z,101473.47
2022-11-28T03:30:10.280Z,101478.31
2022-11-28T03:32:38.141Z,101469.94
2022-11-28T03:35:10.431Z,101477.56
2022-11-28T03:37:38.511Z,101468.50
2022-11-28T03:40:07.189Z,101463.97
2022-11-28T03:42:35.457Z,101457.72
2022-11-28T03:45:04.922Z,101463.28
2022-11-28T03:47:35.664Z,101468.03
2022-11-28T03:50:09.028Z,101458.38
2022-11-28T03:52:37.205Z,101455.06
2022-11-28T03:55:05.840Z,101450.66
2022-11-28T03:57:35.732Z,101439.25
2022-11-28T04:00:02.452Z,101449.03
2022-11-28T04:02:41.532Z,101452.63
2022-11-28T04:05:20.400Z,101446.41
2022-11-28T04:07:49.031Z,101444.66
2022-11-28T04:10:20.504Z,101441.25
2022-11-28T04:12:56.638Z,101440.88
2022-11-28T04:15:30.663Z,101437.09
2022-11-28T04:18:00.840Z,101435.97
2022-11-28T04:20:34.360Z,101437.81
2022-11-28T04:23:04.756Z,101442.09
2022-11-28T04:25:31.669Z,101429.34
2022-11-28T04:28:01.715Z,101438.34
2022-11-28T04:30:26.064Z,101430.09
2022-11-28T04:32:55.557Z,101430.59
2022-11-28T04:35:27.737Z,101418.56
2022-11-28T04:37:53.906Z,101431.75
2022-11-28T04:40:19.308Z,101426.16
2022-11-28T04:42:51.406Z,101412.00
2022-11-28T04:47:43.873Z,101412.47
2022-11-28T04:50:09.217Z,101408.28
2022-11-28T04:52:41.614Z,101410.16
2022-11-28T04:55:11.594Z,101406.13
2022-11-28T04:57:39.629Z,101405.94
2022-11-28T05:00:07.612Z,101405.84
2022-11-28T05:02:31.768Z,101410.59
2022-11-28T05:04:55.953Z,101401.38
2022-11-28T05:07:19.589Z,101405.34
2022-11-28T05:09:44.602Z,101411.88
2022-11-28T05:12:08.775Z,101408.91
2022-11-28T05:14:32.332Z,101414.34
2022-11-28T05:16:55.948Z,101417.50
2022-11-28T05:19:20.013Z,101412.63
2022-11-28T05:21:43.621Z,101408.88
2022-11-28T05:24:08.440Z,101409.03
2022-11-28T05:26:34.352Z,101409.16
2022-11-28T05:28:57.848Z,101409.47
2022-11-28T05:31:23.025Z,101417.38
2022-11-28T05:33:46.633Z,101401.34
2022-11-28T05:36:13.576Z,101407.53
2022-11-28T05:38:38.504Z,101399.84
2022-11-28T05:41:02.135Z,101402.84
2022-11-28T05:43:27.174Z,101395.81
2022-11-28T05:45:50.787Z,101396.25
2022-11-28T05:48:14.347Z,101396.81
2022-11-28T05:50:40.662Z,101396.88
2022-11-28T05:53:04.488Z,101389.09
2022-11-28T05:55:28.119Z,101383.28
2022-11-28T05:57:51.689Z,101381.06
2022-11-28T06:00:18.066Z,101377.09
2022-11-28T06:02:41.699Z,101374.28
2022-11-28T06:05:27.300Z,101374.66
2022-11-28T06:07:49.560Z,101369.97
2022-11-28T06:10:13.176Z,101364.44
2022-11-28T06:12:36.770Z,101357.47
2022-11-28T06:15:00.312Z,101363.16
2022-11-28T06:17:25.291Z,101363.09
2022-11-28T06:19:48.826Z,101357.56
2022-11-28T06:22:12.520Z,101356.16
2022-11-28T06:24:36.064Z,101343.16
2022-11-28T06:26:59.658Z,101338.53
2022-11-28T06:29:23.380Z,101352.72
2022-11-28T06:31:46.997Z,101354.38
2022-11-28T06:34:13.672Z,101354.09
2022-11-28T06:36:37.278Z,101354.34
2022-11-28T06:39:02.055Z,101359.81
2022-11-28T06:41:25.785Z,101352.22
2022-11-28T06:43:49.403Z,101352.13
2022-11-28T06:46:16.180Z,101350.00
2022-11-28T06:48:40.316Z,101351.22
2022-11-28T06:51:07.549Z,101357.38
2022-11-28T06:53:31.690Z,101350.63
2022-11-28T06:55:55.468Z,101344.53
2022-11-28T06:58:18.969Z,101360.72
2022-11-28T07:00:42.552Z,101346.00
2022-11-28T07:03:06.379Z,101353.66
2022-11-28T07:05:31.163Z,101350.34
2022-11-28T07:07:56.684Z,101355.66
2022-11-28T07:10:20.807Z,101354.56
2022-11-28T07:12:44.301Z,101342.13
2022-11-28T07:15:09.667Z,101348.44
2022-11-28T07:17:33.172Z,101349.47
2022-11-28T07:19:56.716Z,101353.50
2022-11-28T07:22:20.225Z,101354.00
2022-11-28T07:24:45.275Z,101346.31
2022-11-28T07:27:08.849Z,101345.56
2022-11-28T07:29:36.437Z,101346.09
2022-11-28T07:31:59.997Z,101354.28
2022-11-28T07:34:23.622Z,101349.47
2022-11-28T07:36:47.130Z,101346.69
2022-11-28T07:39:18.652Z,101358.75
2022-11-28T07:41:43.575Z,101356.53
2022-11-28T07:44:07.259Z,101345.09
2022-11-28T07:46:32.952Z,101352.72
2022-11-28T07:48:56.875Z,101345.72
2022-11-28T07:51:22.973Z,101351.06
2022-11-28T07:53:47.647Z,101356.09
2022-11-28T07:56:15.205Z,101344.88
2022-11-28T07:58:40.339Z,101342.72
2022-11-28T08:01:10.633Z,101343.53
2022-11-28T08:03:34.191Z,101345.81
2022-11-28T08:06:03.251Z,101340.56
2022-11-28T08:08:26.903Z,101355.53
2022-11-28T08:10:50.483Z,101341.88
2022-11-28T08:13:14.878Z,101336.81
2022-11-28T08:15:40.773Z,101339.13
2022-11-28T08:18:04.416Z,101338.25
2022-11-28T08:20:27.960Z,101331.28
2022-11-28T08:22:51.694Z,101319.72
2022-11-28T08:25:15.272Z,101320.72
2022-11-28T08:27:38.823Z,101318.88
2022-11-28T08:30:02.355Z,101315.69
2022-11-28T08:32:27.291Z,101323.56
2022-11-28T08:34:50.823Z,101324.00
2022-11-28T08:37:14.338Z,101318.13
2022-11-28T08:39:37.917Z,101317.69
2022-11-28T08:42:01.440Z,101318.34
2022-11-28T08:44:25.254Z,101318.91
2022-11-28T08:46:48.804Z,101326.13
2022-11-28T08:49:13.775Z,101324.81
2022-11-28T08:51:38.655Z,101328.56
2022-11-28T08:54:02.282Z,101333.59
2022-11-28T08:56:25.853Z,101332.91
2022-11-28T08:58:49.528Z,101329.41
2022-11-28T09:01:18.731Z,101328.53
2022-11-28T09:03:42.458Z,101332.06
2022-11-28T09:06:07.744Z,101339.09
2022-11-28T09:08:31.274Z,101337.25
2022-11-28T09:10:54.828Z,101334.47
2022-11-28T09:13:18.376Z,101340.16
2022-11-28T09:15:43.082Z,101341.66
2022-11-28T09:18:07.035Z,101340.00
2022-11-28T09:20:30.559Z,101340.34
2022-11-28T09:22:55.455Z,101334.00
2022-11-28T09:25:19.396Z,101338.47
2022-11-28T09:27:43.206Z,101335.19
2022-11-28T09:30:09.217Z,101340.41
2022-11-28T09:32:32.782Z,101324.78
2022-11-28T09:34:56.397Z,101325.31
2022-11-28T09:37:19.967Z,101324.28
2022-11-28T09:40:11.452Z,101320.22
2022-11-28T09:42:34.971Z,101322.03
2022-11-28T09:45:02.154Z,101333.06
2022-11-28T09:47:30.064Z,101314.97
2022-11-28T09:49:59.691Z,101304.06
2022-11-28T09:52:33.452Z,101301.25
2022-11-28T09:55:13.067Z,101318.13
2022-11-28T09:57:42.305Z,101307.00
2022-11-28T10:00:08.211Z,101306.47
2022-11-28T10:02:42.247Z,101303.19
2022-11-28T10:05:19.429Z,101309.16
2022-11-28T10:08:04.311Z,101317.53
2022-11-28T10:10:38.456Z,101317.28
2022-11-28T10:13:12.517Z,101309.63
2022-11-28T10:15:49.733Z,101311.03
2022-11-28T10:18:32.835Z,101316.59
2022-11-28T10:21:00.933Z,101316.78
2022-11-28T10:23:29.893Z,101311.59
2022-11-28T10:25:59.397Z,101308.41
2022-11-28T10:28:28.967Z,101309.34
2022-11-28T10:31:01.160Z,101307.09
2022-11-28T10:33:29.843Z,101310.13
2022-11-28T10:35:58.468Z,101294.63
2022-11-28T10:38:25.902Z,101299.28
2022-11-28T10:40:56.385Z,101298.25
2022-11-28T10:43:33.652Z,101296.78
2022-11-28T10:46:08.387Z,101293.72
2022-11-28T10:48:42.363Z,101286.41
2022-11-28T10:51:22.367Z,101278.63
2022-11-28T10:53:55.918Z,101285.50
2022-11-28T10:56:34.937Z,101283.56
2022-11-28T10:59:06.356Z,101280.38
2022-11-28T11:01:37.495Z,101281.72
2022-11-28T11:04:01.092Z,101278.63
2022-11-28T11:06:36.148Z,101273.31
2022-11-28T11:09:05.817Z,101263.84
2022-11-28T11:11:36.004Z,101261.41
2022-11-28T11:14:04.416Z,101260.25
2022-11-28T11:16:47.786Z,101265.78
2022-11-28T11:19:25.938Z,101256.09
2022-11-28T11:22:05.071Z,101260.34
2022-11-28T11:24:29.261Z,101258.28
2022-11-28T11:26:54.385Z,101243.28
2022-11-28T11:29:25.459Z,101246.31
2022-11-28T11:31:52.934Z,101250.25
2022-11-28T11:34:18.965Z,101250.59
2022-11-28T11:36:42.573Z,101251.47
2022-11-28T11:39:12.351Z,101249.38
2022-11-28T11:41:36.135Z,101251.94
2022-11-28T11:44:30.333Z,101246.44
2022-11-28T11:46:55.683Z,101254.91
2022-11-28T11:49:31.414Z,101241.88
2022-11-28T11:51:58.355Z,101247.59
2022-11-28T11:54:22.048Z,101242.00
2022-11-28T11:56:53.560Z,101250.19
2022-11-28T11:59:27.547Z,101244.31
2022-11-28T12:01:58.400Z,101236.16
2022-11-28T12:04:45.461Z,101238.50
2022-11-28T12:07:23.537Z,101228.00
2022-11-28T12:09:50.167Z,101233.34
2022-11-28T12:12:19.318Z,101215.97
2022-11-28T12:14:44.996Z,101218.63
2022-11-28T12:17:53.394Z,101216.34
2022-11-28T12:20:38.283Z,101210.28
2022-11-28T12:23:17.535Z,101200.47
2022-11-28T12:25:50.237Z,101197.44
2022-11-28T12:28:30.360Z,101196.91
2022-11-28T12:31:12.013Z,101195.75
2022-11-28T12:33:47.986Z,101194.03
2022-11-28T12:36:22.125Z,101196.63
2022-11-28T12:39:02.438Z,101192.31
2022-11-28T12:41:54.841Z,101201.94
2022-11-28T12:44:26.797Z,101193.00
2022-11-28T12:47:02.004Z,101191.66
2022-11-28T12:49:36.942Z,101197.00
2022-11-28T12:52:14.011Z,101198.59
2022-11-28T12:55:09.476Z,101192.78
2022-11-28T12:57:41.555Z,101199.44
2022-11-28T13:00:13.001Z,101197.75
2022-11-28T13:02:53.599Z,101199.81
2022-11-28T13:05:41.286Z,101201.28
2022-11-28T13:08:46.453Z,101194.88
2022-11-28T13:11:31.821Z,101197.56
2022-11-28T13:14:00.398Z,101204.34
2022-11-28T13:16:32.990Z,101193.44
2022-11-28T13:19:05.143Z,101197.16
2022-11-28T13:21:39.013Z,101188.97
2022-11-28T13:24:07.732Z,101187.06
2022-11-28T13:26:46.969Z,101187.66
2022-11-28T13:29:25.109Z,101179.53
2022-11-28T13:32:01.619Z,101177.66
2022-11-28T13:34:27.632Z,101178.03
2022-11-28T13:39:48.001Z,101177.19
2022-11-28T13:42:59.628Z,101178.97
2022-11-28T13:45:31.504Z,101180.00
2022-11-28T13:47:55.690Z,101179.47
2022-11-28T13:50:41.539Z,101179.41
2022-11-28T13:53:23.537Z,101185.72
2022-11-28T13:55:48.862Z,101184.81
2022-11-28T13:58:23.800Z,101185.88
2022-11-28T14:01:05.532Z,101192.09
2022-11-28T14:03:30.342Z,101182.34
2022-11-28T14:05:59.784Z,101181.75
2022-11-28T14:08:32.137Z,101181.84
2022-11-28T14:11:25.895Z,101179.50
2022-11-28T14:14:13.187Z,101187.97
2022-11-28T14:16:54.492Z,101191.25
2022-11-28T14:19:32.169Z,101187.03
2022-11-28T14:22:15.577Z,101182.72
2022-11-28T14:24:57.207Z,101182.94
2022-11-28T14:27:25.578Z,101180.72
2022-11-28T14:29:52.697Z,101178.44
2022-11-28T14:32:31.608Z,101188.22
2022-11-28T14:34:56.313Z,101182.53
2022-11-28T14:37:55.565Z,101186.94
2022-11-28T14:41:05.462Z,101187.72
2022-11-28T14:43:31.191Z,101184.56
2022-11-28T14:46:23.855Z,101181.50
2022-11-28T14:49:18.804Z,101176.38
2022-11-28T14:52:38.571Z,101180.13
2022-11-28T14:55:07.298Z,101183.72
2022-11-28T14:57:36.460Z,101185.50
2022-11-28T15:00:07.815Z,101197.53
2022-11-28T15:02:54.841Z,101194.00
2022-11-28T15:05:41.613Z,101193.63
2022-11-28T15:08:45.490Z,101211.28
2022-11-28T15:11:36.802Z,101212.34
2022-11-28T15:14:11.155Z,101211.78
2022-11-28T15:16:36.418Z,101208.91
2022-11-28T15:19:21.746Z,101226.31
2022-11-28T15:21:48.528Z,101214.38
2022-11-28T15:24:30.527Z,101212.91
2022-11-28T15:26:58.264Z,101219.41
2022-11-28T15:29:25.291Z,101215.63
2022-11-28T15:31:51.814Z,101204.03
2022-11-28T15:34:25.028Z,101214.50
2022-11-28T15:36:53.241Z,101204.06
2022-11-28T15:39:31.506Z,101205.75
2022-11-28T15:41:57.480Z,101215.50
2022-11-28T15:44:21.027Z,101207.50
2022-11-28T15:46:44.922Z,101206.47
2022-11-28T15:49:30.357Z,101204.38
2022-11-28T15:51:55.734Z,101202.03
2022-11-28T15:54:39.089Z,101197.94
2022-11-28T15:57:05.029Z,101207.09
2022-11-28T15:59:28.751Z,101207.25
2022-11-28T16:01:58.950Z,101214.59
2022-11-28T16:04:23.466Z,101217.53
2022-11-28T16:06:52.987Z,101215.56
2022-11-28T16:09:29.212Z,101217.34
2022-11-28T16:11:54.908Z,101217.81
2022-11-28T16:14:23.693Z,101216.97
2022-11-28T16:16:47.418Z,101221.84
2022-11-28T16:19:25.919Z,101219.88
2022-11-28T16:21:55.777Z,101227.53
2022-11-28T16:24:26.600Z,101231.91
2022-11-28T16:26:59.795Z,101228.78
2022-11-28T16:29:31.780Z,101225.34
2022-11-28T16:32:09.001Z,101224.16
2022-11-28T16:34:48.924Z,101217.78
2022-11-28T16:37:13.099Z,101218.78
2022-11-28T16:39:37.219Z,101222.16
2022-11-28T16:42:08.816Z,101216.28
2022-11-28T16:44:34.035Z,101222.94
2022-11-28T16:46:59.536Z,101224.03
2022-11-28T16:49:36.656Z,101215.78
2022-11-28T16:52:42.397Z,101217.19
2022-11-28T16:55:40.571Z,101227.47
2022-11-28T16:58:13.580Z,101225.50
2022-11-28T17:00:42.047Z,101236.09
2022-11-28T17:03:12.756Z,101229.13
2022-11-28T17:05:36.523Z,101226.69
2022-11-28T17:08:01.477Z,101237.34
2022-11-28T17:10:25.565Z,101227.00
2022-11-28T17:12:49.220Z,101234.91
2022-11-28T17:15:17.416Z,101226.38
2022-11-28T17:17:42.368Z,101229.69
2022-11-28T17:20:07.581Z,101234.59
2022-11-28T17:22:40.993Z,101230.34
2022-11-28T17:25:06.373Z,101219.72
2022-11-28T17:27:30.105Z,101225.34
2022-11-28T17:29:53.745Z,101221.50
2022-11-28T17:32:17.436Z,101220.19
2022-11-28T17:34:43.620Z,101220.91
2022-11-28T17:37:07.591Z,101225.19
2022-11-28T17:39:31.151Z,101225.44
2022-11-28T17:41:56.177Z,101230.34
2022-11-28T17:44:22.068Z,101224.16
2022-11-28T17:46:45.717Z,101227.84
2022-11-28T17:49:09.311Z,101226.84
2022-11-28T17:51:34.206Z,101237.19
2022-11-28T17:53:57.932Z,101230.69
2022-11-28T17:56:21.454Z,101228.00
2022-11-28T17:58:45.236Z,101227.69
2022-11-28T18:01:12.063Z,101227.41
2022-11-28T18:03:35.685Z,101230.44
2022-11-28T18:06:00.174Z,101225.44
2022-11-28T18:08:25.335Z,101228.47
2022-11-28T18:10:49.516Z,101234.47
2022-11-28T18:13:16.359Z,101235.22
2022-11-28T18:15:42.504Z,101234.09
2022-11-28T18:18:06.759Z,101232.06
2022-11-28T18:20:31.888Z,101233.53
2022-11-28T18:22:56.391Z,101227.59
2022-11-28T18:25:21.314Z,101227.31
2022-11-28T18:27:45.426Z,101231.75
2022-11-28T18:30:10.829Z,101227.94
2022-11-28T18:32:34.422Z,101227.47
2022-11-28T18:34:58.541Z,101222.22
2022-11-28T18:37:24.373Z,101226.69
2022-11-28T18:39:47.999Z,101224.41
2022-11-28T18:42:13.006Z,101220.34
2022-11-28T18:44:36.599Z,101220.25
2022-11-28T18:47:00.176Z,101217.59
2022-11-28T18:49:24.177Z,101217.19
2022-11-28T18:51:48.488Z,101218.16
2022-11-28T18:54:15.072Z,101211.88
2022-11-28T18:56:42.977Z,101205.38
2022-11-28T18:59:07.945Z,101207.50
2022-11-28T19:01:36.763Z,101206.63
2022-11-28T19:04:03.450Z,101202.41
2022-11-28T19:06:27.729Z,101204.69
2022-11-28T19:08:56.625Z,101212.84
2022-11-28T19:11:20.271Z,101217.03
2022-11-28T19:13:46.214Z,101217.75
2022-11-28T19:16:13.383Z,101209.16
2022-11-28T19:18:38.151Z,101211.16
2022-11-28T19:21:06.479Z,101206.72
2022-11-28T19:23:31.122Z,101218.94
2022-11-28T19:25:54.958Z,101212.03
2022-11-28T19:28:19.278Z,101216.28
2022-11-28T19:30:43.027Z,101216.56
2022-11-28T19:33:07.945Z,101219.78
2022-11-28T19:35:31.951Z,101215.13
2022-11-28T19:37:55.506Z,101221.50
2022-11-28T19:40:20.027Z,101223.28
2022-11-28T19:42:43.609Z,101227.53
2022-11-28T19:45:08.560Z,101223.78
2022-11-28T19:47:32.281Z,101225.00
2022-11-28T19:49:57.228Z,101225.50
2022-11-28T19:52:21.374Z,101230.81
2022-11-28T19:54:45.432Z,101231.88
2022-11-28T19:57:11.289Z,101224.47
2022-11-28T19:59:34.935Z,101222.22
2022-11-28T20:01:58.907Z,101221.72
2022-11-28T20:04:22.566Z,101223.22
2022-11-28T20:06:47.639Z,101233.94
2022-11-28T20:09:14.334Z,101219.16
2022-11-28T20:11:39.862Z,101228.81
2022-11-28T20:14:07.826Z,101229.94
2022-11-28T20:16:33.141Z,101237.13
2022-11-28T20:18:56.858Z,101230.97
2022-11-28T20:21:22.085Z,101232.19
2022-11-28T20:23:49.053Z,101233.97
2022-11-28T20:26:13.849Z,101242.72
2022-11-28T20:28:39.927Z,101241.47
2022-11-28T20:31:05.347Z,101235.38
2022-11-28T20:33:30.484Z,101238.50
2022-11-28T20:35:59.714Z,101240.22
2022-11-28T20:38:23.863Z,101238.50
2022-11-28T20:40:48.783Z,101247.91
2022-11-28T20:43:12.311Z,101237.41
2022-11-28T20:45:35.954Z,101235.69
2022-11-28T20:48:01.755Z,101247.09
2022-11-28T20:50:25.263Z,101237.06
2022-11-28T20:52:48.852Z,101238.50
2022-11-28T20:55:12.889Z,101240.41
2022-11-28T20:57:37.859Z,101237.50
2022-11-28T21:00:01.383Z,101231.41
2022-11-28T21:02:25.240Z,101233.16
2022-11-28T21:04:48.856Z,101226.38
2022-11-28T21:07:12.431Z,101229.97
2022-11-28T21:09:35.979Z,101227.44
2022-11-28T21:11:59.733Z,101232.78
2022-11-28T21:14:24.808Z,101230.59
2022-11-28T21:16:48.520Z,101237.34
2022-11-28T21:19:12.598Z,101232.25
2022-11-28T21:21:38.908Z,101236.19
2022-11-28T21:24:05.177Z,101228.34
2022-11-28T21:26:30.757Z,101232.88
2022-11-28T21:28:58.653Z,101229.44
2022-11-28T21:31:27.098Z,101235.06
2022-11-28T21:33:50.926Z,101233.34
2022-11-28T21:36:14.467Z,101230.53
2022-11-28T21:38:37.987Z,101229.59
2022-11-28T21:41:02.525Z,101235.38
2022-11-28T21:43:26.408Z,101239.13
2022-11-28T21:45:50.103Z,101232.50
2022-11-28T21:48:16.739Z,101239.69
2022-11-28T21:50:47.513Z,101236.88
2022-11-28T21:53:11.129Z,101233.41
2022-11-28T21:55:34.664Z,101236.84
2022-11-28T21:57:58.209Z,101229.03
2022-11-28T22:00:46.024Z,101234.94
2022-11-28T22:03:12.449Z,101226.16
2022-11-28T22:05:39.518Z,101228.97
2022-11-28T22:08:03.272Z,101222.28
2022-11-28T22:10:27.184Z,101221.34
2022-11-28T22:12:51.071Z,101217.34
2022-11-28T22:15:14.683Z,101221.34
2022-11-28T22:17:38.398Z,101228.56
2022-11-28T22:20:02.053Z,101225.19
2022-11-28T22:22:27.576Z,101228.25
2022-11-28T22:24:51.169Z,101239.91
2022-11-28T22:27:14.883Z,101237.25
2022-11-28T22:29:39.221Z,101235.06
2022-11-28T22:32:02.964Z,101240.41
2022-11-28T22:34:26.748Z,101241.56
2022-11-28T22:36:50.297Z,101242.72
2022-11-28T22:39:17.645Z,101241.28
2022-11-28T22:41:41.506Z,101238.28
2022-11-28T22:44:06.077Z,101237.69
2022-11-28T22:46:30.609Z,101235.84
2022-11-28T22:48:55.442Z,101234.25
2022-11-28T22:51:22.632Z,101223.50
2022-11-28T22:53:46.447Z,101234.56
2022-11-28T22:56:14.604Z,101239.25
2022-11-28T22:58:42.468Z,101235.25
2022-11-28T23:01:08.318Z,101240.41
2022-11-28T23:03:32.076Z,101234.72
2022-11-28T23:05:56.036Z,101239.03
2022-11-28T23:08:19.753Z,101233.09
2022-11-28T23:10:43.270Z,101228.16
2022-11-28T23:13:08.347Z,101230.66
2022-11-28T23:15:31.884Z,101232.00
2022-11-28T23:17:55.432Z,101233.34
2022-11-28T23:20:19.396Z,101228.00
2022-11-28T23:22:43.135Z,101228.41
2022-11-28T23:25:08.178Z,101230.34
2022-11-28T23:27:32.008Z,101233.47
2022-11-28T23:29:57.421Z,101228.31
2022-11-28T23:32:21.028Z,101233.75
2022-11-28T23:34:45.334Z,101236.59
2022-11-28T23:37:09.696Z,101236.78
2022-11-28T23:39:33.217Z,101235.44
2022-11-28T23:42:00.731Z,101244.00
2022-11-28T23:44:24.238Z,101233.22
2022-11-28T23:46:49.455Z,101237.56
2022-11-28T23:49:13.551Z,101242.41
2022-11-28T23:51:38.014Z,101235.38
2022-11-28T23:54:01.924Z,101241.47
2022-11-28T23:56:28.288Z,101241.22
2022-11-28T23:58:52.385Z,101239.88
